Time;durP1;ratioP1;P1;durP2;ratioP2;P2;SDS_P1;SDS_P2;PMS_P1;PMS_P2;Temp;Humidity;BMP_temperature;BMP_pressure;BME280_temperature;BME280_humidity;BME280_pressure;Samples;Min_cycle;Max_cycle;Signal;HPM_P1;HPM_P2
2023/10/15 00:00:23;;;;;;;2.63;1.07;;;9.80;99.90;;;;;;4998185;28;20186;-71
2023/10/15 00:02:53;;;;;;;3.27;1.53;;;9.90;99.90;;;;;;4997389;28;20171;-71
2023/10/15 00:05:20;;;;;;;2.73;1.20;;;9.80;99.90;;;;;;4997188;28;20290;-71
2023/10/15 00:07:49;;;;;;;3.50;1.20;;;9.80;99.90;;;;;;4997304;28;20202;-69
2023/10/15 00:10:17;;;;;;;2.47;1.10;;;9.80;99.90;;;;;;4993826;28;20176;-68
2023/10/15 00:12:46;;;;;;;2.00;1.17;;;9.80;99.90;;;;;;4981474;28;20176;-71
2023/10/15 00:15:18;;;;;;;3.37;1.33;;;9.80;99.90;;;;;;4978934;28;20184;-72
2023/10/15 00:17:51;;;;;;;2.43;1.20;;;9.80;99.90;;;;;;4978702;28;20210;-72
2023/10/15 00:20:26;;;;;;;2.20;1.20;;;9.80;99.90;;;;;;4997126;28;20191;-72
2023/10/15 00:22:54;;;;;;;2.40;1.13;;;9.80;99.90;;;;;;4993689;28;20241;-72
2023/10/15 00:25:20;;;;;;;4.63;1.43;;;9.80;99.90;;;;;;4977577;28;20180;-72
2023/10/15 00:28:05;;;;;;;3.73;1.20;;;9.70;99.90;;;;;;4983454;28;20188;-71
2023/10/15 00:30:37;;;;;;;3.57;1.20;;;9.70;99.90;;;;;;5007535;28;20237;-72
2023/10/15 00:33:11;;;;;;;4.03;1.10;;;9.70;99.90;;;;;;4996846;28;20191;-71
2023/10/15 00:35:44;;;;;;;2.20;0.93;;;9.70;99.90;;;;;;4987235;28;20203;-70
2023/10/15 00:38:19;;;;;;;3.50;1.43;;;9.60;99.90;;;;;;4987979;28;20246;-72
2023/10/15 00:40:45;;;;;;;3.10;1.27;;;9.60;99.90;;;;;;4982467;28;20183;-71
2023/10/15 00:43:17;;;;;;;3.03;1.20;;;9.60;99.90;;;;;;4978026;28;20208;-72
2023/10/15 00:45:45;;;;;;;3.57;1.40;;;9.60;99.90;;;;;;4987534;28;20216;-72
2023/10/15 00:48:36;;;;;;;2.30;1.13;;;9.60;99.90;;;;;;4977259;28;20195;-70
2023/10/15 00:51:13;;;;;;;1.80;1.03;;;9.60;99.90;;;;;;5010127;28;20262;-72
2023/10/15 00:53:51;;;;;;;2.83;1.20;;;9.60;99.90;;;;;;4996745;28;20194;-72
2023/10/15 00:56:24;;;;;;;1.27;0.90;;;9.60;99.90;;;;;;4996539;28;20249;-72
2023/10/15 01:01:26;;;;;;;2.47;1.13;;;9.50;99.90;;;;;;4996587;28;20207;-71
2023/10/15 01:03:59;;;;;;;3.10;1.30;;;9.50;99.90;;;;;;4996235;28;20266;-72
2023/10/15 01:06:30;;;;;;;2.60;0.90;;;9.50;99.90;;;;;;4996513;28;20176;-71
2023/10/15 01:09:30;;;;;;;2.60;1.30;;;9.50;99.90;;;;;;4995857;28;20246;-72
2023/10/15 01:11:56;;;;;;;3.63;1.03;;;9.50;99.90;;;;;;4982749;28;20275;-70
2023/10/15 01:14:39;;;;;;;2.87;1.13;;;9.50;99.90;;;;;;4983537;28;20246;-71
2023/10/15 01:17:05;;;;;;;2.83;1.00;;;9.40;99.90;;;;;;4976932;28;20196;-71
2023/10/15 01:19:33;;;;;;;2.70;1.30;;;9.50;99.90;;;;;;4979168;28;20207;-71
2023/10/15 01:22:02;;;;;;;2.97;0.90;;;9.50;99.90;;;;;;4995050;28;20175;-71
2023/10/15 01:24:38;;;;;;;2.30;1.20;;;9.40;99.90;;;;;;4996010;28;20217;-71
2023/10/15 01:27:11;;;;;;;1.50;0.93;;;9.50;99.90;;;;;;4994924;28;20207;-72
2023/10/15 01:29:48;;;;;;;2.53;1.00;;;9.50;99.90;;;;;;5001980;28;20184;-71
2023/10/15 01:32:19;;;;;;;1.50;0.83;;;9.50;99.90;;;;;;5002006;28;20214;-69
2023/10/15 01:34:45;;;;;;;3.03;1.07;;;9.50;99.90;;;;;;4995609;28;20198;-71
2023/10/15 01:39:51;;;;;;;1.80;1.00;;;9.50;99.90;;;;;;5002154;28;20210;-72
2023/10/15 01:44:53;;;;;;;2.97;1.00;;;9.50;99.90;;;;;;4990628;28;20188;-72
2023/10/15 01:47:27;;;;;;;2.90;1.10;;;9.50;99.90;;;;;;4992644;28;20194;-72
2023/10/15 01:50:00;;;;;;;3.10;0.90;;;9.40;99.90;;;;;;4985401;28;20190;-71
2023/10/15 01:52:39;;;;;;;2.00;1.07;;;9.40;99.90;;;;;;4982032;28;20254;-73
2023/10/15 01:55:08;;;;;;;2.87;1.00;;;9.40;99.90;;;;;;4995728;28;20199;-72
2023/10/15 01:57:39;;;;;;;3.27;1.00;;;9.30;99.90;;;;;;4995769;28;20214;-70
2023/10/15 02:00:14;;;;;;;4.10;1.00;;;9.30;99.90;;;;;;4994908;28;20203;-72
2023/10/15 02:02:42;;;;;;;3.33;1.10;;;9.30;99.90;;;;;;4995037;28;20194;-70
2023/10/15 02:05:25;;;;;;;2.20;1.00;;;9.20;99.90;;;;;;4995326;28;20199;-71
2023/10/15 02:07:51;;;;;;;3.40;1.07;;;9.20;99.90;;;;;;4994638;28;20187;-72
2023/10/15 02:10:16;;;;;;;3.13;1.17;;;9.20;99.90;;;;;;4993642;28;20278;-70
2023/10/15 02:12:51;;;;;;;2.37;1.03;;;9.20;99.90;;;;;;4988105;28;20212;-71
2023/10/15 02:15:22;;;;;;;1.93;1.10;;;9.10;99.90;;;;;;4995162;28;20255;-71
2023/10/15 02:17:52;;;;;;;2.93;1.10;;;9.10;99.90;;;;;;4999367;28;20204;-72
2023/10/15 02:20:26;;;;;;;2.73;1.07;;;9.10;99.90;;;;;;4990377;28;20219;-71
2023/10/15 02:22:53;;;;;;;2.77;0.83;;;9.10;99.90;;;;;;4995212;28;20210;-72
2023/10/15 02:25:27;;;;;;;2.53;1.00;;;9.10;99.90;;;;;;4991263;28;20179;-69
2023/10/15 02:27:55;;;;;;;4.20;1.13;;;9.10;99.90;;;;;;5002690;28;20234;-71
2023/10/15 02:30:20;;;;;;;1.77;0.97;;;9.10;99.90;;;;;;4995252;28;20245;-71
2023/10/15 02:32:53;;;;;;;3.10;1.00;;;9.10;99.90;;;;;;4996450;28;20171;-71
2023/10/15 02:35:24;;;;;;;3.47;1.00;;;9.00;99.90;;;;;;5017394;28;20194;-72
2023/10/15 02:37:49;;;;;;;3.30;0.90;;;9.10;99.90;;;;;;5001297;28;20234;-70
2023/10/15 02:40:20;;;;;;;4.20;1.10;;;9.10;99.90;;;;;;5001304;28;20302;-72
2023/10/15 02:42:54;;;;;;;1.83;0.93;;;9.00;99.90;;;;;;5000537;28;20218;-72
2023/10/15 02:45:23;;;;;;;3.17;1.20;;;9.00;99.90;;;;;;4982255;28;20187;-72
2023/10/15 02:47:49;;;;;;;1.93;1.07;;;9.10;99.90;;;;;;4997026;28;20202;-68
2023/10/15 02:50:17;;;;;;;2.73;1.10;;;9.10;99.90;;;;;;5001361;28;20421;-72
2023/10/15 02:52:43;;;;;;;3.03;1.00;;;9.10;99.90;;;;;;5001517;28;20175;-71
2023/10/15 02:55:11;;;;;;;2.73;1.23;;;9.10;99.90;;;;;;5001655;28;20209;-69
2023/10/15 02:57:43;;;;;;;3.20;1.10;;;9.10;99.90;;;;;;5001530;28;20197;-72
2023/10/15 03:00:18;;;;;;;2.63;1.10;;;9.10;99.90;;;;;;4999640;28;20194;-72
2023/10/15 03:02:45;;;;;;;2.17;1.13;;;9.10;99.90;;;;;;5005263;28;20316;-71
2023/10/15 03:05:15;;;;;;;2.97;1.20;;;9.10;99.90;;;;;;5018207;28;20183;-72
2023/10/15 03:07:44;;;;;;;3.03;1.07;;;9.10;99.90;;;;;;5000890;28;20210;-72
2023/10/15 03:10:21;;;;;;;2.80;1.17;;;9.10;99.90;;;;;;5001400;28;20202;-72
2023/10/15 03:12:49;;;;;;;3.40;1.20;;;9.10;99.90;;;;;;5001452;28;20175;-72
2023/10/15 03:15:17;;;;;;;2.87;1.17;;;9.10;99.90;;;;;;5001415;28;20181;-72
2023/10/15 03:17:44;;;;;;;4.90;1.40;;;9.10;99.90;;;;;;4998597;28;20208;-69
2023/10/15 03:20:39;;;;;;;5.70;1.43;;;9.00;99.90;;;;;;5000733;28;20215;-68
2023/10/15 03:23:05;;;;;;;3.27;1.20;;;9.00;99.90;;;;;;5001355;28;20281;-72
2023/10/15 03:25:35;;;;;;;2.63;1.07;;;9.10;99.90;;;;;;5000854;28;20257;-72
2023/10/15 03:28:01;;;;;;;3.13;1.20;;;9.00;99.90;;;;;;5000728;28;20180;-70
2023/10/15 03:30:27;;;;;;;2.87;1.10;;;9.00;99.90;;;;;;5000832;28;20183;-72
2023/10/15 03:33:00;;;;;;;3.57;1.20;;;9.00;99.90;;;;;;4999913;28;20187;-72
2023/10/15 03:35:33;;;;;;;3.60;1.40;;;9.00;99.90;;;;;;5001081;28;20186;-71
2023/10/15 03:38:05;;;;;;;2.60;1.63;;;9.00;99.90;;;;;;4997647;28;20281;-68
2023/10/15 03:43:06;;;;;;;3.10;1.03;;;8.90;99.90;;;;;;4994517;28;20210;-72
2023/10/15 03:45:50;;;;;;;3.37;1.50;;;8.90;99.90;;;;;;4989879;28;20191;-72
2023/10/15 03:48:18;;;;;;;3.83;1.43;;;8.90;99.90;;;;;;4997374;28;20225;-72
2023/10/15 03:50:53;;;;;;;4.63;1.50;;;8.90;99.90;;;;;;4997239;28;20187;-72
2023/10/15 03:53:21;;;;;;;4.07;1.80;;;9.00;99.90;;;;;;5002286;28;20178;-72
2023/10/15 03:55:49;;;;;;;1.83;1.40;;;9.00;99.90;;;;;;5010306;28;20172;-72
2023/10/15 03:58:18;;;;;;;3.73;1.40;;;9.00;99.90;;;;;;4988553;28;20204;-72
2023/10/15 04:00:56;;;;;;;3.00;1.40;;;9.00;99.90;;;;;;4996762;28;20186;-71
2023/10/15 04:03:35;;;;;;;5.97;1.60;;;9.00;99.90;;;;;;4996963;28;20286;-71
2023/10/15 04:06:05;;;;;;;2.30;1.30;;;9.10;99.90;;;;;;4996814;28;20179;-71
2023/10/15 04:08:33;;;;;;;2.20;1.33;;;9.10;99.90;;;;;;4996990;28;20270;-72
2023/10/15 04:11:00;;;;;;;4.20;1.83;;;9.20;99.90;;;;;;4993751;28;20257;-71
2023/10/15 04:13:26;;;;;;;3.33;1.57;;;9.20;99.90;;;;;;4980154;28;20191;-72
2023/10/15 04:15:56;;;;;;;3.07;1.60;;;9.20;99.90;;;;;;4996534;28;20197;-72
2023/10/15 04:18:29;;;;;;;3.90;1.50;;;9.30;99.90;;;;;;4988009;28;20298;-72
2023/10/15 04:20:56;;;;;;;3.30;1.60;;;9.30;99.90;;;;;;4996949;28;20186;-71
2023/10/15 04:23:30;;;;;;;3.17;1.60;;;9.30;99.90;;;;;;4996626;28;20282;-71
2023/10/15 04:26:03;;;;;;;3.83;1.60;;;9.30;99.90;;;;;;4984442;28;20178;-72
2023/10/15 04:28:30;;;;;;;3.00;1.43;;;9.30;99.90;;;;;;4996926;28;20258;-72
2023/10/15 04:30:56;;;;;;;2.20;1.43;;;9.30;99.90;;;;;;4992873;28;20184;-72
2023/10/15 04:33:25;;;;;;;2.23;1.37;;;9.20;99.90;;;;;;4989680;28;20249;-71
2023/10/15 04:35:51;;;;;;;3.13;1.40;;;9.30;99.90;;;;;;4996555;28;20283;-72
2023/10/15 04:38:22;;;;;;;2.73;1.33;;;9.30;99.90;;;;;;4996479;28;20278;-72
2023/10/15 04:43:24;;;;;;;3.60;1.37;;;9.20;99.90;;;;;;4997100;28;20199;-71
2023/10/15 04:45:50;;;;;;;2.97;1.33;;;9.20;99.90;;;;;;4996598;28;20199;-72
2023/10/15 04:48:16;;;;;;;2.83;1.47;;;9.20;99.90;;;;;;4996085;28;20175;-73
2023/10/15 04:50:45;;;;;;;3.13;1.30;;;9.20;99.90;;;;;;4996516;28;20273;-73
2023/10/15 04:53:23;;;;;;;2.97;1.40;;;9.20;99.90;;;;;;4996191;28;20175;-72
2023/10/15 04:55:49;;;;;;;3.57;1.40;;;9.20;99.90;;;;;;4996139;28;20470;-71
2023/10/15 04:58:15;;;;;;;2.57;1.40;;;9.20;99.90;;;;;;4996387;28;20171;-71
2023/10/15 05:00:47;;;;;;;2.70;1.30;;;9.10;99.90;;;;;;4996232;28;20196;-72
2023/10/15 05:03:14;;;;;;;2.87;1.50;;;9.10;99.90;;;;;;4996333;28;20176;-69
2023/10/15 05:05:42;;;;;;;3.53;1.53;;;9.10;99.90;;;;;;4995815;28;20206;-70
2023/10/15 05:08:11;;;;;;;2.37;1.07;;;9.10;99.90;;;;;;4996172;28;20215;-72
2023/10/15 05:10:44;;;;;;;2.47;1.40;;;9.10;99.90;;;;;;4996009;28;20219;-72
2023/10/15 05:13:13;;;;;;;2.37;1.20;;;9.10;99.90;;;;;;4996210;28;20191;-72
2023/10/15 05:15:42;;;;;;;1.70;1.40;;;9.10;99.90;;;;;;4996209;28;20183;-72
2023/10/15 05:18:13;;;;;;;2.77;1.37;;;9.20;99.90;;;;;;4993204;28;20248;-72
2023/10/15 05:20:39;;;;;;;2.23;1.10;;;9.20;99.90;;;;;;4977991;28;20200;-72
2023/10/15 05:23:04;;;;;;;2.00;1.07;;;9.20;99.90;;;;;;4977681;28;20180;-72
2023/10/15 05:25:39;;;;;;;2.53;1.10;;;9.30;99.90;;;;;;4997666;28;20175;-71
2023/10/15 05:28:07;;;;;;;2.43;1.07;;;9.30;99.90;;;;;;4999257;28;20277;-72
2023/10/15 05:30:33;;;;;;;2.07;1.30;;;9.30;99.90;;;;;;4987771;28;20176;-72
2023/10/15 05:33:00;;;;;;;2.50;1.23;;;9.30;99.90;;;;;;4999177;28;20200;-72
2023/10/15 05:35:29;;;;;;;1.80;1.20;;;9.40;99.90;;;;;;4992845;28;20179;-73
2023/10/15 05:37:54;;;;;;;2.63;1.07;;;9.40;99.90;;;;;;4994330;28;20184;-71
2023/10/15 05:40:23;;;;;;;2.40;1.10;;;9.30;99.90;;;;;;4992621;28;20239;-73
2023/10/15 05:42:53;;;;;;;3.20;1.27;;;9.40;99.90;;;;;;4988056;28;20179;-73
2023/10/15 05:45:19;;;;;;;2.43;1.30;;;9.30;99.90;;;;;;4985572;28;20186;-71
2023/10/15 05:47:47;;;;;;;3.00;1.10;;;9.40;99.90;;;;;;4996362;28;20174;-72
2023/10/15 05:50:13;;;;;;;1.87;0.93;;;9.40;99.90;;;;;;4995339;28;20262;-71
2023/10/15 05:52:39;;;;;;;2.97;0.90;;;9.40;99.90;;;;;;4995517;28;20302;-72
2023/10/15 05:55:08;;;;;;;2.97;1.10;;;9.40;99.90;;;;;;4996116;28;20265;-72
2023/10/15 05:57:34;;;;;;;2.47;1.00;;;9.30;99.90;;;;;;4996022;28;20171;-72
2023/10/15 06:00:18;;;;;;;2.60;1.27;;;9.30;99.90;;;;;;4995403;28;20280;-71
2023/10/15 06:02:44;;;;;;;2.07;1.10;;;9.30;99.90;;;;;;4995827;28;20181;-71
2023/10/15 06:05:13;;;;;;;2.57;1.00;;;9.40;99.90;;;;;;4994975;28;20225;-73
2023/10/15 06:07:41;;;;;;;2.40;1.00;;;9.30;99.90;;;;;;5000505;28;20213;-72
2023/10/15 06:10:08;;;;;;;2.63;1.13;;;9.40;99.90;;;;;;4976180;28;20271;-72
2023/10/15 06:12:34;;;;;;;2.33;0.90;;;9.40;99.90;;;;;;4988474;28;20345;-72
2023/10/15 06:15:00;;;;;;;2.73;1.00;;;9.40;99.90;;;;;;4994238;28;20195;-72
2023/10/15 06:17:26;;;;;;;2.73;1.10;;;9.50;99.90;;;;;;4980482;28;20183;-71
2023/10/15 06:19:56;;;;;;;2.60;1.00;;;9.50;99.90;;;;;;4996630;28;20195;-71
2023/10/15 06:22:26;;;;;;;2.90;1.00;;;9.60;99.90;;;;;;4987843;28;20175;-68
2023/10/15 06:24:52;;;;;;;2.70;1.20;;;9.50;99.90;;;;;;4995921;28;20258;-72
2023/10/15 06:27:18;;;;;;;1.77;0.90;;;9.60;99.90;;;;;;4995193;28;20179;-70
2023/10/15 06:29:46;;;;;;;1.53;0.97;;;9.60;99.90;;;;;;4993513;28;20183;-69
2023/10/15 06:32:14;;;;;;;2.60;1.27;;;9.60;99.90;;;;;;4992267;28;20204;-71
2023/10/15 06:34:40;;;;;;;2.07;0.93;;;9.60;99.90;;;;;;4995488;28;20211;-71
2023/10/15 06:37:08;;;;;;;1.30;0.90;;;9.60;99.90;;;;;;4977968;28;20234;-72
2023/10/15 06:39:35;;;;;;;1.90;1.10;;;9.60;99.90;;;;;;4994193;28;20214;-69
2023/10/15 06:42:05;;;;;;;1.50;1.10;;;9.60;99.90;;;;;;4997122;28;20239;-71
2023/10/15 06:44:31;;;;;;;2.43;1.40;;;9.60;99.90;;;;;;4991183;28;20176;-63
2023/10/15 06:46:59;;;;;;;2.63;1.27;;;9.60;99.90;;;;;;4992856;28;20182;-70
2023/10/15 06:49:29;;;;;;;2.63;1.60;;;9.50;99.90;;;;;;4998655;28;20275;-72
2023/10/15 06:51:55;;;;;;;3.17;1.30;;;9.50;99.90;;;;;;4981392;28;20204;-72
2023/10/15 06:54:23;;;;;;;1.77;1.20;;;9.40;99.90;;;;;;4976185;28;20184;-72
2023/10/15 06:56:49;;;;;;;2.63;1.30;;;9.50;99.90;;;;;;4990768;28;20203;-73
2023/10/15 06:59:17;;;;;;;2.13;1.30;;;9.40;99.90;;;;;;4995426;28;20203;-73
2023/10/15 07:01:43;;;;;;;2.40;1.27;;;9.40;99.90;;;;;;4995126;28;20183;-73
2023/10/15 07:04:12;;;;;;;2.13;1.40;;;9.40;99.90;;;;;;4995526;28;20175;-72
2023/10/15 07:06:40;;;;;;;4.27;2.03;;;9.40;99.90;;;;;;4995067;28;20172;-71
2023/10/15 07:09:06;;;;;;;3.57;1.80;;;9.40;99.90;;;;;;4994982;28;20179;-73
2023/10/15 07:11:36;;;;;;;2.67;1.43;;;9.40;99.90;;;;;;4995156;28;20238;-72
2023/10/15 07:14:02;;;;;;;1.93;1.43;;;9.60;99.90;;;;;;4994192;28;20218;-71
2023/10/15 07:16:28;;;;;;;3.40;1.57;;;9.60;99.90;;;;;;4995156;28;20417;-73
2023/10/15 07:18:54;;;;;;;1.50;1.23;;;9.60;99.90;;;;;;4990597;28;20243;-72
2023/10/15 07:21:19;;;;;;;2.70;1.70;;;9.70;99.90;;;;;;4997177;28;20187;-71
2023/10/15 07:23:45;;;;;;;3.20;1.73;;;9.70;99.90;;;;;;4985947;28;20207;-71
2023/10/15 07:26:11;;;;;;;3.37;1.50;;;9.80;99.90;;;;;;4997834;28;20225;-67
2023/10/15 07:28:37;;;;;;;1.47;1.13;;;9.90;99.90;;;;;;4988196;28;20179;-67
2023/10/15 07:31:07;;;;;;;2.57;1.70;;;9.80;99.90;;;;;;4984260;28;20214;-67
2023/10/15 07:33:32;;;;;;;2.57;1.60;;;9.80;99.90;;;;;;5002748;28;20190;-67
2023/10/15 07:36:03;;;;;;;2.90;1.70;;;9.80;99.90;;;;;;4998204;28;20180;-67
2023/10/15 07:38:28;;;;;;;2.77;1.50;;;9.80;99.90;;;;;;4997859;28;20222;-67
2023/10/15 07:40:56;;;;;;;3.80;1.60;;;9.80;99.90;;;;;;4996030;28;20175;-67
2023/10/15 07:43:23;;;;;;;4.63;2.30;;;9.80;99.90;;;;;;4996919;28;20203;-66
2023/10/15 07:45:49;;;;;;;2.70;1.80;;;9.90;99.90;;;;;;4998167;28;20206;-67
2023/10/15 07:48:15;;;;;;;3.13;1.73;;;9.90;99.90;;;;;;4998668;28;20206;-69
2023/10/15 07:50:43;;;;;;;2.33;1.73;;;9.90;99.90;;;;;;4998312;28;20218;-67
2023/10/15 07:53:11;;;;;;;1.70;1.40;;;9.90;99.90;;;;;;4992555;28;20183;-67
2023/10/15 07:55:39;;;;;;;2.60;1.30;;;9.90;99.90;;;;;;4997878;28;20214;-67
2023/10/15 07:58:06;;;;;;;3.30;1.50;;;9.90;99.90;;;;;;4997711;28;20183;-67
2023/10/15 08:00:33;;;;;;;1.67;1.50;;;9.90;99.90;;;;;;5004817;28;20232;-67
2023/10/15 08:03:00;;;;;;;3.37;1.80;;;9.90;99.90;;;;;;4999077;28;20287;-67
2023/10/15 08:05:31;;;;;;;2.20;1.47;;;9.90;99.90;;;;;;4994754;28;20196;-68
2023/10/15 08:07:57;;;;;;;1.80;1.40;;;10.00;99.90;;;;;;4997890;28;20176;-67
2023/10/15 08:10:24;;;;;;;1.63;1.33;;;10.00;99.90;;;;;;4995078;28;20241;-67
2023/10/15 08:12:54;;;;;;;2.20;1.70;;;10.00;99.90;;;;;;4997605;28;20266;-67
2023/10/15 08:15:20;;;;;;;2.73;1.83;;;10.00;99.90;;;;;;4997077;28;20203;-67
2023/10/15 08:17:48;;;;;;;3.07;1.50;;;10.10;99.90;;;;;;4996935;28;20262;-67
2023/10/15 08:20:14;;;;;;;2.03;1.47;;;10.20;99.90;;;;;;4997698;28;20203;-67
2023/10/15 08:22:40;;;;;;;2.60;1.30;;;10.20;99.90;;;;;;4997706;28;20179;-67
2023/10/15 08:25:13;;;;;;;2.00;1.40;;;10.30;99.90;;;;;;4997806;28;20187;-68
2023/10/15 08:27:41;;;;;;;3.05;1.40;;;10.30;99.90;;;;;;4997768;28;20246;-67
2023/10/15 08:30:08;;;;;;;2.83;1.50;;;10.40;99.90;;;;;;4997326;28;20176;-67
2023/10/15 08:32:36;;;;;;;2.55;1.40;;;10.40;99.90;;;;;;4996996;28;20199;-67
2023/10/15 08:35:01;;;;;;;3.30;1.45;;;10.50;99.90;;;;;;4996919;28;20206;-67
2023/10/15 08:37:35;;;;;;;3.25;1.70;;;10.60;99.90;;;;;;4997647;28;20191;-67
2023/10/15 08:40:06;;;;;;;2.60;1.42;;;10.70;99.90;;;;;;4996926;28;20222;-67
2023/10/15 08:42:42;;;;;;;3.35;1.50;;;10.70;99.90;;;;;;4996767;28;20183;-67
2023/10/15 08:45:11;;;;;;;2.08;1.42;;;10.80;99.90;;;;;;4993536;28;20182;-67
2023/10/15 08:47:38;;;;;;;2.67;1.63;;;10.90;99.90;;;;;;4995135;28;20207;-68
2023/10/15 08:50:06;;;;;;;3.13;1.52;;;10.90;99.90;;;;;;4997325;28;20183;-67
2023/10/15 08:52:34;;;;;;;3.10;1.70;;;10.90;99.90;;;;;;4995422;28;20351;-70
2023/10/15 08:55:00;;;;;;;2.20;1.27;;;11.00;99.90;;;;;;4991522;28;20214;-70
2023/10/15 08:57:30;;;;;;;7.07;1.63;;;11.00;99.90;;;;;;5002556;28;20215;-71
2023/10/15 08:59:57;;;;;;;2.38;1.40;;;11.00;99.90;;;;;;4983435;28;20203;-70
2023/10/15 09:02:29;;;;;;;2.80;1.55;;;11.00;99.90;;;;;;4996093;28;20175;-69
2023/10/15 09:04:55;;;;;;;2.55;1.75;;;11.00;99.90;;;;;;4995223;28;20191;-71
2023/10/15 09:07:23;;;;;;;4.03;1.67;;;11.10;99.90;;;;;;4998271;28;20242;-70
2023/10/15 09:09:51;;;;;;;1.80;1.02;;;11.10;99.90;;;;;;4988191;28;20187;-71
2023/10/15 09:12:18;;;;;;;2.55;1.10;;;11.00;99.90;;;;;;4977357;28;20196;-72
2023/10/15 09:14:45;;;;;;;1.45;1.00;;;11.00;99.90;;;;;;4992751;28;20715;-71
2023/10/15 09:17:15;;;;;;;1.75;0.70;;;10.90;99.90;;;;;;4996407;28;20290;-72
2023/10/15 09:19:46;;;;;;;1.00;0.60;;;10.90;99.90;;;;;;4996479;28;20211;-71
2023/10/15 09:22:14;;;;;;;1.35;0.60;;;10.90;99.90;;;;;;5002121;28;20179;-71
2023/10/15 09:24:46;;;;;;;1.00;0.60;;;10.80;99.90;;;;;;4993612;28;20179;-70
2023/10/15 09:27:15;;;;;;;0.82;0.45;;;10.80;99.90;;;;;;4989594;28;20184;-71
2023/10/15 09:29:42;;;;;;;0.75;0.50;;;10.80;99.90;;;;;;4989721;28;20211;-71
2023/10/15 09:32:08;;;;;;;1.20;0.60;;;10.80;99.90;;;;;;4982021;28;20175;-67
2023/10/15 09:34:38;;;;;;;0.65;0.50;;;10.80;99.90;;;;;;4996337;28;20188;-68
2023/10/15 09:37:06;;;;;;;0.95;0.50;;;10.80;99.90;;;;;;4995084;28;20211;-68
2023/10/15 09:39:32;;;;;;;0.70;0.50;;;10.90;99.90;;;;;;4992884;28;20211;-68
2023/10/15 09:42:02;;;;;;;1.08;0.70;;;10.90;99.90;;;;;;4992136;28;20251;-67
2023/10/15 09:44:29;;;;;;;1.27;0.60;;;11.00;99.90;;;;;;4978660;28;20183;-67
2023/10/15 09:46:57;;;;;;;0.93;0.70;;;11.00;99.90;;;;;;4994499;28;20177;-68
2023/10/15 09:49:25;;;;;;;0.98;0.60;;;11.00;99.90;;;;;;4979453;28;20211;-67
2023/10/15 09:51:51;;;;;;;1.40;0.80;;;11.00;99.90;;;;;;4995395;28;20199;-67
2023/10/15 09:54:23;;;;;;;0.65;0.65;;;11.10;99.90;;;;;;4995782;28;20248;-67
2023/10/15 09:56:54;;;;;;;0.57;0.57;;;11.00;99.90;;;;;;4996026;28;20171;-68
2023/10/15 09:59:20;;;;;;;1.33;0.82;;;11.00;99.90;;;;;;4995180;28;20246;-68
2023/10/15 10:01:55;;;;;;;2.05;0.60;;;10.90;99.90;;;;;;4995593;28;20230;-68
2023/10/15 10:04:52;;;;;;;1.45;0.55;;;10.90;99.90;;;;;;4992501;28;20190;-67
2023/10/15 10:07:47;;;;;;;2.10;0.82;;;10.90;99.90;;;;;;4992909;28;20196;-67
2023/10/15 10:10:28;;;;;;;1.80;1.20;;;10.80;99.90;;;;;;4995583;28;20191;-67
2023/10/15 10:13:30;;;;;;;1.70;0.80;;;10.80;99.90;;;;;;4994581;28;20202;-69
2023/10/15 10:15:59;;;;;;;1.60;0.80;;;10.90;99.90;;;;;;4996106;28;20183;-66
2023/10/15 10:18:27;;;;;;;0.90;0.68;;;11.00;99.90;;;;;;4996570;28;20199;-66
2023/10/15 10:20:55;;;;;;;1.08;0.70;;;11.00;99.90;;;;;;4995435;28;20206;-67
2023/10/15 10:23:23;;;;;;;1.13;0.70;;;11.20;99.90;;;;;;4995495;28;20266;-67
2023/10/15 10:25:58;;;;;;;1.98;1.00;;;11.30;99.90;;;;;;4993302;28;20203;-68
2023/10/15 10:28:26;;;;;;;1.88;1.00;;;11.30;99.90;;;;;;4987584;28;20174;-67
2023/10/15 10:30:56;;;;;;;2.03;1.50;;;11.40;99.90;;;;;;4994690;28;20203;-67
2023/10/15 10:33:41;;;;;;;2.28;1.10;;;11.50;99.90;;;;;;4994602;28;20224;-69
2023/10/15 10:36:19;;;;;;;1.58;1.00;;;11.60;99.90;;;;;;4995180;28;20237;-67
2023/10/15 10:39:07;;;;;;;3.28;1.10;;;11.70;99.90;;;;;;4975732;28;20241;-67
2023/10/15 10:41:41;;;;;;;2.70;1.10;;;11.90;99.90;;;;;;4987612;28;20214;-67
2023/10/15 10:44:23;;;;;;;2.65;1.20;;;12.10;99.90;;;;;;4994890;28;20171;-67
2023/10/15 10:46:53;;;;;;;1.58;1.10;;;12.40;99.90;;;;;;4992480;28;20207;-68
2023/10/15 10:49:30;;;;;;;1.67;1.00;;;12.60;99.90;;;;;;4988063;28;20238;-67
2023/10/15 10:52:14;;;;;;;2.28;0.88;;;13.00;99.90;;;;;;4982387;28;20208;-67
2023/10/15 10:54:40;;;;;;;2.10;0.95;;;13.20;99.90;;;;;;4984685;28;20192;-67
2023/10/15 10:57:09;;;;;;;4.07;1.20;;;13.30;99.90;;;;;;4998648;28;20179;-67
2023/10/15 10:59:37;;;;;;;1.58;0.90;;;13.30;99.90;;;;;;4995305;28;20215;-67
2023/10/15 11:02:05;;;;;;;1.92;1.00;;;13.20;99.90;;;;;;5001863;28;20249;-66
2023/10/15 11:04:31;;;;;;;3.90;1.27;;;13.20;99.90;;;;;;4996623;28;20222;-67
2023/10/15 11:07:03;;;;;;;2.08;1.10;;;13.00;99.90;;;;;;4998916;28;20206;-66
2023/10/15 11:09:31;;;;;;;3.58;1.40;;;12.90;99.90;;;;;;4998826;28;20175;-67
2023/10/15 11:12:00;;;;;;;1.27;0.90;;;12.80;99.90;;;;;;4998594;28;20376;-67
2023/10/15 11:14:30;;;;;;;1.75;1.20;;;12.70;99.90;;;;;;4998634;28;20183;-67
2023/10/15 11:16:57;;;;;;;1.77;1.02;;;12.60;99.90;;;;;;4998734;28;20179;-67
2023/10/15 11:19:30;;;;;;;2.63;1.10;;;12.50;99.90;;;;;;4996066;28;20269;-67
2023/10/15 11:21:57;;;;;;;2.22;1.00;;;12.40;99.90;;;;;;4999449;28;20203;-68
2023/10/15 11:24:24;;;;;;;2.42;1.20;;;12.40;99.90;;;;;;4998487;28;20167;-67
2023/10/15 11:26:50;;;;;;;2.55;1.20;;;12.40;99.90;;;;;;4998334;28;20202;-67
2023/10/15 11:29:22;;;;;;;2.28;1.13;;;12.40;99.90;;;;;;4998462;28;20194;-67
2023/10/15 11:31:55;;;;;;;2.90;1.50;;;12.40;99.90;;;;;;4998102;28;20238;-67
2023/10/15 11:34:22;;;;;;;2.83;1.13;;;12.50;99.90;;;;;;4997784;28;20164;-67
2023/10/15 11:36:55;;;;;;;3.83;1.40;;;12.50;99.90;;;;;;4997013;28;20202;-67
2023/10/15 11:39:25;;;;;;;2.10;1.20;;;12.60;99.90;;;;;;4998042;28;20245;-67
2023/10/15 11:41:59;;;;;;;3.03;1.38;;;12.70;99.90;;;;;;4995079;28;20176;-67
2023/10/15 11:44:26;;;;;;;1.65;1.20;;;12.60;99.90;;;;;;4998108;28;20178;-67
2023/10/15 11:46:55;;;;;;;2.60;1.40;;;12.70;99.90;;;;;;4998267;28;20179;-67
2023/10/15 11:49:24;;;;;;;1.50;1.15;;;12.80;99.90;;;;;;4997737;28;20183;-67
2023/10/15 11:51:55;;;;;;;3.40;1.50;;;12.90;99.90;;;;;;4997368;28;20203;-67
2023/10/15 11:54:32;;;;;;;2.85;1.33;;;12.90;99.90;;;;;;4998101;28;20171;-67
2023/10/15 11:57:05;;;;;;;1.35;0.93;;;12.80;99.90;;;;;;4997957;28;20218;-67
2023/10/15 11:59:31;;;;;;;3.00;1.10;;;12.80;99.90;;;;;;4997822;28;20211;-67
2023/10/15 12:02:00;;;;;;;2.03;1.23;;;12.80;99.90;;;;;;4997620;28;20187;-67
2023/10/15 12:04:28;;;;;;;3.58;1.25;;;12.70;99.90;;;;;;4997967;28;20182;-67
2023/10/15 12:06:54;;;;;;;1.33;1.02;;;12.70;99.90;;;;;;4996680;28;20179;-68
2023/10/15 12:09:31;;;;;;;1.50;1.08;;;12.60;99.90;;;;;;4993355;28;20173;-69
2023/10/15 12:11:59;;;;;;;1.70;1.00;;;12.70;99.90;;;;;;4994886;28;20179;-68
2023/10/15 12:14:27;;;;;;;2.72;0.93;;;12.90;99.90;;;;;;4997847;28;20249;-69
2023/10/15 12:16:52;;;;;;;1.38;0.90;;;13.10;99.90;;;;;;4997410;28;20183;-68
2023/10/15 12:19:20;;;;;;;2.45;1.05;;;13.30;99.90;;;;;;4997314;28;20234;-68
2023/10/15 12:21:50;;;;;;;2.53;1.15;;;13.50;99.90;;;;;;4997376;28;20171;-68
2023/10/15 12:24:18;;;;;;;2.33;1.52;;;13.60;99.90;;;;;;4997227;28;20271;-68
2023/10/15 12:26:44;;;;;;;2.22;0.93;;;13.80;99.90;;;;;;4996458;28;20482;-69
2023/10/15 12:29:13;;;;;;;1.40;1.05;;;13.80;99.90;;;;;;4997244;28;20214;-69
2023/10/15 12:31:43;;;;;;;3.03;1.08;;;13.90;99.90;;;;;;4997353;28;20175;-69
2023/10/15 12:34:11;;;;;;;2.85;1.05;;;14.00;99.90;;;;;;4997411;28;20271;-68
2023/10/15 12:36:38;;;;;;;1.77;1.00;;;14.00;99.90;;;;;;4997053;28;20254;-68
2023/10/15 12:39:05;;;;;;;1.92;0.80;;;14.20;99.90;;;;;;4997766;28;20253;-69
2023/10/15 12:41:38;;;;;;;1.88;1.00;;;14.30;99.90;;;;;;4997226;28;20207;-68
2023/10/15 12:44:14;;;;;;;2.17;0.73;;;14.40;99.90;;;;;;4996695;28;20190;-69
2023/10/15 12:46:41;;;;;;;0.93;0.50;;;14.60;99.90;;;;;;4992929;28;20211;-67
2023/10/15 12:49:08;;;;;;;1.23;0.57;;;14.80;99.90;;;;;;4996948;28;20175;-68
2023/10/15 12:51:36;;;;;;;0.63;0.43;;;15.00;99.90;;;;;;4996955;28;20187;-67
2023/10/15 12:54:03;;;;;;;0.88;0.60;;;15.00;99.90;;;;;;4996947;28;20203;-67
2023/10/15 12:56:30;;;;;;;1.08;0.70;;;15.10;99.90;;;;;;4996798;28;20203;-67
2023/10/15 12:58:59;;;;;;;1.50;0.50;;;15.10;99.90;;;;;;4996897;28;20195;-67
2023/10/15 13:01:24;;;;;;;2.65;1.13;;;15.10;99.90;;;;;;4995914;28;20175;-67
2023/10/15 13:03:57;;;;;;;1.73;0.90;;;15.00;99.90;;;;;;4992815;28;20195;-67
2023/10/15 13:06:23;;;;;;;2.17;1.08;;;14.90;99.90;;;;;;4991791;28;20171;-68
2023/10/15 13:08:50;;;;;;;2.35;1.08;;;14.80;99.90;;;;;;4988053;28;20181;-67
2023/10/15 13:11:16;;;;;;;0.98;0.75;;;14.70;99.90;;;;;;4996569;28;20183;-67
2023/10/15 13:13:46;;;;;;;2.20;1.75;;;14.60;99.90;;;;;;4996324;28;20305;-67
2023/10/15 13:16:11;;;;;;;1.23;0.80;;;14.40;99.90;;;;;;4991173;28;20237;-67
2023/10/15 13:18:40;;;;;;;1.50;0.88;;;14.40;99.90;;;;;;4992964;28;20188;-67